Time;durP1;ratioP1;P1;durP2;ratioP2;P2;SDS_P1;SDS_P2;PMS_P1;PMS_P2;Temp;Humidity;BMP_temperature;BMP_pressure;BME280_temperature;BME280_humidity;BME280_pressure;Samples;Min_cycle;Max_cycle;Signal;HPM_P1;HPM_P2
2021/12/08 00:00:59;;;;;;;14.18;4.22;;;;;;;;;;5070588;28;20053;-78
2021/12/08 00:03:28;;;;;;;12.00;4.35;;;;;;;;;;5072391;28;20056;-80
2021/12/08 00:05:55;;;;;;;11.38;5.13;;;;;;;;;;5070238;28;20045;-79
2021/12/08 00:08:22;;;;;;;15.48;4.50;;;;;;;;;;5069761;28;20495;-80
2021/12/08 00:13:16;;;;;;;11.70;4.57;;;;;;;;;;5079828;28;20036;-80
2021/12/08 00:15:44;;;;;;;9.68;4.20;;;;;;;;;;5070247;28;20060;-79
2021/12/08 00:18:12;;;;;;;10.68;4.32;;;;;;;;;;5063032;28;20068;-81
2021/12/08 00:20:41;;;;;;;12.73;4.30;;;;;;;;;;5071433;28;20053;-80
2021/12/08 00:23:08;;;;;;;11.10;4.30;;;;;;;;;;5069783;28;20049;-81
2021/12/08 00:25:35;;;;;;;10.30;4.40;;;;;;;;;;5063699;28;20049;-81
2021/12/08 00:28:02;;;;;;;12.77;4.32;;;;;;;;;;5070517;28;20052;-79
2021/12/08 00:30:29;;;;;;;7.30;3.88;;;;;;;;;;5069301;28;20049;-80
2021/12/08 00:32:57;;;;;;;8.18;3.85;;;;;;;;;;5070368;28;20049;-80
2021/12/08 00:35:25;;;;;;;12.50;4.10;;;;;;;;;;5070042;28;20061;-81
2021/12/08 00:37:51;;;;;;;13.40;4.05;;;;;;;;;;5068041;28;20052;-81
2021/12/08 00:40:18;;;;;;;14.48;4.80;;;;;;;;;;5068002;28;20053;-80
2021/12/08 00:42:45;;;;;;;16.15;4.57;;;;;;;;;;5069834;28;20492;-80
2021/12/08 00:45:12;;;;;;;8.75;4.18;;;;;;;;;;5070412;28;20053;-81
2021/12/08 00:47:39;;;;;;;8.05;3.67;;;;;;;;;;5069725;28;20056;-81
2021/12/08 00:50:07;;;;;;;9.85;4.60;;;;;;;;;;5069069;28;20068;-80
2021/12/08 00:52:33;;;;;;;9.52;4.38;;;;;;;;;;5069277;28;20045;-79
2021/12/08 00:55:00;;;;;;;11.93;4.78;;;;;;;;;;5064738;28;20060;-80
2021/12/08 00:57:27;;;;;;;18.75;5.10;;;;;;;;;;5070341;28;20053;-81
2021/12/08 00:59:53;;;;;;;11.13;4.50;;;;;;;;;;5069173;28;20087;-81
2021/12/08 01:02:25;;;;;;;16.00;4.95;;;;;;;;;;5070140;28;20056;-79
2021/12/08 01:04:51;;;;;;;9.68;4.47;;;;;;;;;;5071139;28;20053;-80
2021/12/08 01:07:17;;;;;;;12.68;4.93;;;;;;;;;;5069771;28;20053;-78
2021/12/08 01:09:44;;;;;;;13.77;5.22;;;;;;;;;;5068704;28;20060;-80
2021/12/08 01:12:10;;;;;;;12.30;5.32;;;;;;;;;;5070120;28;20053;-81
2021/12/08 01:14:37;;;;;;;13.15;6.00;;;;;;;;;;5069585;28;20064;-79
2021/12/08 01:17:03;;;;;;;12.40;5.78;;;;;;;;;;5066848;28;20794;-79
2021/12/08 01:19:30;;;;;;;13.85;5.38;;;;;;;;;;5070810;28;20053;-81
2021/12/08 01:21:56;;;;;;;16.50;5.85;;;;;;;;;;5069839;28;20080;-79
2021/12/08 01:24:23;;;;;;;12.65;5.55;;;;;;;;;;5069795;28;20056;-78
2021/12/08 01:26:49;;;;;;;15.35;4.53;;;;;;;;;;5071267;28;20057;-79
2021/12/08 01:29:16;;;;;;;12.88;5.68;;;;;;;;;;5068452;28;20057;-80
2021/12/08 01:31:44;;;;;;;13.30;5.95;;;;;;;;;;5063246;28;20431;-79
2021/12/08 01:34:11;;;;;;;16.35;5.57;;;;;;;;;;5070550;28;20057;-80
2021/12/08 01:36:38;;;;;;;12.63;6.13;;;;;;;;;;5068604;28;20053;-80
2021/12/08 01:39:05;;;;;;;14.48;5.88;;;;;;;;;;5067841;28;20056;-79
2021/12/08 01:41:32;;;;;;;18.17;6.50;;;;;;;;;;5070482;28;20561;-79
2021/12/08 01:46:43;;;;;;;16.75;6.15;;;;;;;;;;5067278;28;20044;-80
2021/12/08 01:49:10;;;;;;;16.10;6.55;;;;;;;;;;5066381;28;20052;-79
2021/12/08 01:51:37;;;;;;;14.90;6.75;;;;;;;;;;5068090;28;20044;-79
2021/12/08 01:54:05;;;;;;;15.77;6.93;;;;;;;;;;5070727;28;20049;-78
2021/12/08 01:56:32;;;;;;;16.90;7.00;;;;;;;;;;5073337;28;20068;-79
2021/12/08 01:58:59;;;;;;;16.60;7.03;;;;;;;;;;5070251;28;20563;-79
2021/12/08 02:01:27;;;;;;;15.40;7.53;;;;;;;;;;5068574;28;20532;-80
2021/12/08 02:03:54;;;;;;;16.88;7.20;;;;;;;;;;5069263;28;20064;-77
2021/12/08 02:06:21;;;;;;;14.55;6.97;;;;;;;;;;5071080;28;20060;-80
2021/12/08 02:08:50;;;;;;;13.63;6.80;;;;;;;;;;5069906;28;20057;-79
2021/12/08 02:11:18;;;;;;;16.85;7.40;;;;;;;;;;5067899;28;20056;-78
2021/12/08 02:13:44;;;;;;;13.73;6.80;;;;;;;;;;5067671;28;20053;-80
2021/12/08 02:16:14;;;;;;;15.20;6.97;;;;;;;;;;5067614;28;20057;-80
2021/12/08 02:18:42;;;;;;;18.58;6.82;;;;;;;;;;5068399;28;20053;-80
2021/12/08 02:21:22;;;;;;;15.93;6.95;;;;;;;;;;5067857;28;20057;-79
2021/12/08 02:23:48;;;;;;;17.45;7.00;;;;;;;;;;5066824;28;20645;-79
2021/12/08 02:26:15;;;;;;;17.95;6.90;;;;;;;;;;5069654;28;20053;-80
2021/12/08 02:28:42;;;;;;;16.95;6.85;;;;;;;;;;5068471;28;20064;-80
2021/12/08 02:31:13;;;;;;;17.48;6.47;;;;;;;;;;5067104;28;20064;-79
2021/12/08 02:49:56;;;;;;;13.95;5.00;;;;;;;;;;5069592;28;20057;-79
2021/12/08 02:52:23;;;;;;;12.95;4.40;;;;;;;;;;5065709;28;20601;-79
2021/12/08 02:54:50;;;;;;;14.80;4.82;;;;;;;;;;5068128;28;20049;-79
2021/12/08 02:57:19;;;;;;;9.20;3.97;;;;;;;;;;5068792;28;20516;-80
2021/12/08 02:59:46;;;;;;;14.05;4.70;;;;;;;;;;5068413;28;20424;-80
2021/12/08 03:02:13;;;;;;;13.25;4.10;;;;;;;;;;5070182;28;20068;-80
2021/12/08 03:04:39;;;;;;;13.85;4.20;;;;;;;;;;5069330;28;20049;-79
2021/12/08 03:07:06;;;;;;;14.55;3.75;;;;;;;;;;5068531;28;20053;-78
2021/12/08 03:09:33;;;;;;;18.30;4.88;;;;;;;;;;5062660;28;20056;-80
2021/12/08 03:12:00;;;;;;;15.48;3.50;;;;;;;;;;5071859;28;20832;-80
2021/12/08 03:14:28;;;;;;;11.10;4.15;;;;;;;;;;5072470;28;20072;-79
2021/12/08 03:16:56;;;;;;;13.80;3.80;;;;;;;;;;5067633;28;20874;-78
2021/12/08 03:19:25;;;;;;;13.57;4.30;;;;;;;;;;5072559;28;20080;-78
2021/12/08 03:21:52;;;;;;;11.20;4.05;;;;;;;;;;5070260;28;20045;-80
2021/12/08 03:24:34;;;;;;;14.50;4.07;;;;;;;;;;5070720;28;20523;-80
2021/12/08 03:32:03;;;;;;;10.15;3.95;;;;;;;;;;5072932;28;20503;-80
2021/12/08 03:34:31;;;;;;;11.55;3.53;;;;;;;;;;5072938;28;20135;-80
2021/12/08 03:36:58;;;;;;;14.55;4.07;;;;;;;;;;5073665;28;20130;-80
2021/12/08 03:39:25;;;;;;;13.13;3.70;;;;;;;;;;5073042;28;20115;-80
2021/12/08 03:41:51;;;;;;;12.45;3.78;;;;;;;;;;5070502;28;20084;-80
2021/12/08 03:44:18;;;;;;;12.38;3.88;;;;;;;;;;5072766;28;20119;-78
2021/12/08 03:46:44;;;;;;;11.07;3.50;;;;;;;;;;5066696;28;20099;-79
2021/12/08 03:49:14;;;;;;;9.77;3.88;;;;;;;;;;5072624;28;20110;-80
2021/12/08 03:51:41;;;;;;;10.02;3.85;;;;;;;;;;5071368;28;20053;-79
2021/12/08 03:54:07;;;;;;;9.27;3.65;;;;;;;;;;5069530;28;20061;-79
2021/12/08 03:56:34;;;;;;;10.13;4.07;;;;;;;;;;5071076;28;20053;-79
2021/12/08 03:59:00;;;;;;;16.80;4.32;;;;;;;;;;5067189;28;20573;-80
2021/12/08 04:01:26;;;;;;;13.02;3.97;;;;;;;;;;5066661;28;20049;-79
2021/12/08 04:03:55;;;;;;;11.27;3.88;;;;;;;;;;5070233;28;20056;-78
2021/12/08 04:06:34;;;;;;;12.38;3.88;;;;;;;;;;5071516;28;20566;-79
2021/12/08 04:09:05;;;;;;;14.85;3.33;;;;;;;;;;5068266;28;20065;-80
2021/12/08 04:11:32;;;;;;;16.98;3.95;;;;;;;;;;5066355;28;20061;-78
2021/12/08 04:14:03;;;;;;;10.40;3.25;;;;;;;;;;5070385;28;20574;-80
2021/12/08 04:16:29;;;;;;;;;;;;;;;;;;5072642;28;20053;-77
2021/12/08 04:18:57;;;;;;;9.25;3.35;;;;;;;;;;5069150;28;48154;-80
2021/12/08 04:21:24;;;;;;;10.00;2.85;;;;;;;;;;5069162;28;20057;-79
2021/12/08 04:23:51;;;;;;;8.35;3.22;;;;;;;;;;5072576;28;20072;-80
2021/12/08 04:26:23;;;;;;;8.23;3.10;;;;;;;;;;5071965;28;20037;-80
2021/12/08 04:28:49;;;;;;;8.23;2.60;;;;;;;;;;5077262;28;20107;-79
2021/12/08 04:31:24;;;;;;;10.52;2.95;;;;;;;;;;5070022;28;20080;-79
2021/12/08 04:33:53;;;;;;;10.23;2.63;;;;;;;;;;5071873;28;20938;-79
2021/12/08 04:36:20;;;;;;;6.80;2.70;;;;;;;;;;5070927;28;20056;-79
2021/12/08 04:38:51;;;;;;;11.18;2.90;;;;;;;;;;5071285;28;20053;-80
2021/12/08 04:41:25;;;;;;;15.23;3.58;;;;;;;;;;5071354;28;20053;-79
2021/12/08 04:44:00;;;;;;;11.40;3.28;;;;;;;;;;5069986;28;20470;-80
2021/12/08 04:47:29;;;;;;;11.57;2.85;;;;;;;;;;5076039;28;20080;-80
2021/12/08 05:00:44;;;;;;;12.90;2.65;;;;;;;;;;5071462;28;20118;-79
2021/12/08 05:06:07;;;;;;;13.23;2.30;;;;;;;;;;5056797;28;20115;-81
2021/12/08 05:08:40;;;;;;;8.73;2.42;;;;;;;;;;5069291;28;20057;-79
2021/12/08 05:11:16;;;;;;;8.02;2.60;;;;;;;;;;5067830;28;20111;-79
2021/12/08 05:13:43;;;;;;;6.20;2.20;;;;;;;;;;5066400;28;20127;-80
2021/12/08 05:16:10;;;;;;;11.02;2.40;;;;;;;;;;5070302;28;21675;-80
2021/12/08 05:18:39;;;;;;;11.82;1.90;;;;;;;;;;5070572;28;20083;-80
2021/12/08 05:21:14;;;;;;;9.85;1.88;;;;;;;;;;5069852;28;20049;-80
2021/12/08 05:23:45;;;;;;;8.35;1.60;;;;;;;;;;5068622;28;20102;-80
2021/12/08 05:26:15;;;;;;;10.70;1.95;;;;;;;;;;5070908;28;20512;-80
2021/12/08 05:28:42;;;;;;;9.63;2.35;;;;;;;;;;5070117;28;20387;-80
2021/12/08 05:31:10;;;;;;;6.63;1.75;;;;;;;;;;5070971;28;20037;-79
2021/12/08 05:33:38;;;;;;;7.65;1.75;;;;;;;;;;5071049;28;20084;-79
2021/12/08 05:36:04;;;;;;;5.68;1.50;;;;;;;;;;5069793;28;20049;-80
2021/12/08 05:38:31;;;;;;;8.48;1.92;;;;;;;;;;5069808;28;20072;-80
2021/12/08 05:41:07;;;;;;;7.25;1.70;;;;;;;;;;5070222;28;20109;-80
2021/12/08 05:43:33;;;;;;;8.93;2.50;;;;;;;;;;5070024;28;20057;-79
2021/12/08 05:46:01;;;;;;;9.13;2.00;;;;;;;;;;5069421;28;20055;-80
2021/12/08 05:48:30;;;;;;;9.13;2.05;;;;;;;;;;5062334;28;20515;-79
2021/12/08 05:50:59;;;;;;;6.72;1.70;;;;;;;;;;5070257;28;20107;-78
2021/12/08 05:53:26;;;;;;;7.97;1.90;;;;;;;;;;5078325;28;20934;-80
2021/12/08 05:55:54;;;;;;;9.30;2.28;;;;;;;;;;5070187;28;20597;-79
2021/12/08 05:58:21;;;;;;;9.68;2.20;;;;;;;;;;5069891;28;20121;-80
2021/12/08 06:00:50;;;;;;;3.90;1.52;;;;;;;;;;5069972;28;20194;-79
2021/12/08 06:03:17;;;;;;;7.80;1.73;;;;;;;;;;5069195;28;20049;-80
2021/12/08 06:05:46;;;;;;;6.68;1.98;;;;;;;;;;5071073;28;20508;-80
2021/12/08 06:08:16;;;;;;;7.68;1.90;;;;;;;;;;5069407;28;20535;-80
2021/12/08 06:10:45;;;;;;;6.68;2.00;;;;;;;;;;5069487;28;20504;-80
2021/12/08 06:13:13;;;;;;;4.88;1.20;;;;;;;;;;5069036;28;20045;-79
2021/12/08 06:15:40;;;;;;;6.32;1.70;;;;;;;;;;5070637;28;20057;-79
2021/12/08 06:18:07;;;;;;;7.78;1.48;;;;;;;;;;5069737;28;20064;-80
2021/12/08 06:20:33;;;;;;;8.95;1.27;;;;;;;;;;5067327;28;20057;-80
2021/12/08 06:23:00;;;;;;;5.10;1.17;;;;;;;;;;5070272;28;20049;-78
2021/12/08 06:25:27;;;;;;;10.88;1.83;;;;;;;;;;5070271;28;20057;-79
2021/12/08 06:27:54;;;;;;;8.60;1.42;;;;;;;;;;5074158;28;20899;-79
2021/12/08 06:30:22;;;;;;;7.03;1.30;;;;;;;;;;5070356;28;20522;-79
2021/12/08 06:32:48;;;;;;;8.70;1.40;;;;;;;;;;5070097;28;20072;-79
2021/12/08 06:35:17;;;;;;;6.18;1.73;;;;;;;;;;5067872;28;20049;-80
2021/12/08 06:37:44;;;;;;;4.32;1.10;;;;;;;;;;5067367;28;20111;-81
2021/12/08 06:40:20;;;;;;;8.98;1.50;;;;;;;;;;5067004;28;20057;-80
2021/12/08 06:42:51;;;;;;;12.07;1.67;;;;;;;;;;5069612;28;20037;-78
2021/12/08 06:45:17;;;;;;;;;;;;;;;;;;5071406;28;20137;-78
2021/12/08 06:47:44;;;;;;;6.93;1.13;;;;;;;;;;5072373;28;48023;-80
2021/12/08 06:50:31;;;;;;;6.97;1.10;;;;;;;;;;5072329;28;20511;-79
2021/12/08 06:52:58;;;;;;;9.32;1.45;;;;;;;;;;5085555;28;20081;-79
2021/12/08 06:55:39;;;;;;;8.30;1.52;;;;;;;;;;5073353;28;20048;-80
2021/12/08 06:58:18;;;;;;;6.40;1.35;;;;;;;;;;5074213;28;20053;-80
2021/12/08 07:01:00;;;;;;;6.03;1.37;;;;;;;;;;5077766;28;20119;-80
2021/12/08 07:03:36;;;;;;;10.40;1.40;;;;;;;;;;5071207;28;20501;-79
2021/12/08 07:06:12;;;;;;;5.22;1.27;;;;;;;;;;5074083;28;20065;-79
2021/12/08 07:08:46;;;;;;;8.90;1.73;;;;;;;;;;5072339;28;20464;-78
2021/12/08 07:11:15;;;;;;;9.70;1.65;;;;;;;;;;5072063;28;20952;-80
2021/12/08 07:13:41;;;;;;;9.32;1.70;;;;;;;;;;5071711;28;20576;-80
2021/12/08 07:16:27;;;;;;;9.98;1.60;;;;;;;;;;5067893;28;20049;-79
2021/12/08 07:19:00;;;;;;;8.48;1.60;;;;;;;;;;5070849;28;20060;-79
2021/12/08 07:21:29;;;;;;;7.25;1.38;;;;;;;;;;5072072;28;20093;-80
2021/12/08 07:24:00;;;;;;;7.20;1.40;;;;;;;;;;5073488;28;20053;-80
2021/12/08 07:26:28;;;;;;;14.65;1.85;;;;;;;;;;5088793;28;20057;-79
2021/12/08 07:28:56;;;;;;;9.15;1.83;;;;;;;;;;5065259;28;20122;-79
2021/12/08 07:31:25;;;;;;;9.43;1.58;;;;;;;;;;5072181;28;20053;-80
2021/12/08 07:33:52;;;;;;;6.28;1.77;;;;;;;;;;5065400;28;20041;-78
2021/12/08 07:36:19;;;;;;;7.50;1.40;;;;;;;;;;5071798;28;20033;-80
2021/12/08 07:38:48;;;;;;;10.07;1.70;;;;;;;;;;5072592;28;20053;-78
2021/12/08 07:41:21;;;;;;;8.07;1.65;;;;;;;;;;5071391;28;20103;-77
2021/12/08 07:43:49;;;;;;;14.27;1.85;;;;;;;;;;5071901;28;20053;-80
2021/12/08 07:46:18;;;;;;;9.68;1.67;;;;;;;;;;5088318;28;20056;-80
2021/12/08 07:48:49;;;;;;;11.27;1.70;;;;;;;;;;5071682;28;20148;-79
2021/12/08 07:51:21;;;;;;;6.70;1.80;;;;;;;;;;5072440;28;20143;-80
2021/12/08 07:53:48;;;;;;;8.48;1.30;;;;;;;;;;5071299;28;20648;-80
2021/12/08 07:56:16;;;;;;;7.35;1.33;;;;;;;;;;5070977;28;20859;-80
2021/12/08 07:58:43;;;;;;;8.35;1.75;;;;;;;;;;5071004;28;20060;-80
2021/12/08 08:01:14;;;;;;;15.10;1.75;;;;;;;;;;5069403;28;20057;-80
2021/12/08 08:03:41;;;;;;;7.28;1.95;;;;;;;;;;5072253;28;20037;-78
2021/12/08 08:06:10;;;;;;;10.38;1.65;;;;;;;;;;5069826;28;20057;-77
2021/12/08 08:08:36;;;;;;;9.23;1.90;;;;;;;;;;5071000;28;20530;-79
2021/12/08 08:11:05;;;;;;;7.63;1.73;;;;;;;;;;5065889;28;20057;-78
2021/12/08 08:13:31;;;;;;;9.18;1.80;;;;;;;;;;5072488;28;20068;-81
2021/12/08 08:16:05;;;;;;;9.30;2.47;;;;;;;;;;5071827;28;20056;-79
2021/12/08 08:18:34;;;;;;;6.80;2.03;;;;;;;;;;5071884;28;20091;-82
2021/12/08 08:21:04;;;;;;;9.55;1.50;;;;;;;;;;5071223;28;20057;-80
2021/12/08 08:23:31;;;;;;;8.48;2.10;;;;;;;;;;5067617;28;20081;-80
2021/12/08 08:26:00;;;;;;;8.85;2.10;;;;;;;;;;5072340;28;20049;-80
2021/12/08 08:28:26;;;;;;;8.40;1.75;;;;;;;;;;5072022;28;20056;-80
2021/12/08 08:30:55;;;;;;;9.75;2.08;;;;;;;;;;5070565;28;20052;-79
2021/12/08 08:33:23;;;;;;;10.00;1.83;;;;;;;;;;5072010;28;20052;-80
2021/12/08 08:35:51;;;;;;;10.98;1.60;;;;;;;;;;5070309;28;20103;-79
2021/12/08 08:38:20;;;;;;;9.60;1.40;;;;;;;;;;5071958;28;20108;-79
2021/12/08 08:40:49;;;;;;;10.43;1.48;;;;;;;;;;5069991;28;20123;-79
2021/12/08 08:43:16;;;;;;;6.65;1.63;;;;;;;;;;5071291;28;20577;-79
2021/12/08 08:45:48;;;;;;;9.10;1.45;;;;;;;;;;5083914;28;20056;-79
2021/12/08 08:48:16;;;;;;;10.40;2.33;;;;;;;;;;5071370;28;20072;-79
2021/12/08 08:50:47;;;;;;;12.60;1.80;;;;;;;;;;5067055;28;20127;-79
2021/12/08 08:53:14;;;;;;;8.88;2.03;;;;;;;;;;5067942;28;20107;-79
2021/12/08 08:55:49;;;;;;;8.80;1.40;;;;;;;;;;5071354;28;20052;-79
2021/12/08 08:58:17;;;;;;;8.38;1.70;;;;;;;;;;5073044;28;20057;-80
2021/12/08 09:00:46;;;;;;;9.95;2.00;;;;;;;;;;5070344;28;21725;-80
2021/12/08 09:03:15;;;;;;;9.15;1.80;;;;;;;;;;5069725;28;20060;-80
2021/12/08 09:05:52;;;;;;;4.90;1.40;;;;;;;;;;5070486;28;20041;-80
2021/12/08 09:08:20;;;;;;;10.43;1.52;;;;;;;;;;5070908;28;20061;-81
2021/12/08 09:11:19;;;;;;;7.47;1.48;;;;;;;;;;5070673;28;20057;-80
2021/12/08 09:13:50;;;;;;;6.22;1.40;;;;;;;;;;5035027;28;20053;-80
2021/12/08 09:16:25;;;;;;;7.90;1.63;;;;;;;;;;5063348;28;20503;-80
2021/12/08 09:18:59;;;;;;;12.02;2.17;;;;;;;;;;5069230;28;20085;-79
2021/12/08 09:21:26;;;;;;;13.63;1.95;;;;;;;;;;5070307;28;20053;-80
2021/12/08 09:23:58;;;;;;;9.00;1.30;;;;;;;;;;5071633;28;20057;-80
2021/12/08 09:26:25;;;;;;;5.53;1.33;;;;;;;;;;5064484;28;20053;-80
2021/12/08 09:29:01;;;;;;;9.75;1.70;;;;;;;;;;5067980;28;20071;-79
2021/12/08 09:31:31;;;;;;;8.95;1.85;;;;;;;;;;5070839;28;20574;-79
2021/12/08 09:34:00;;;;;;;9.82;1.90;;;;;;;;;;5069304;28;20135;-79
2021/12/08 09:36:33;;;;;;;9.95;1.58;;;;;;;;;;5070320;28;20113;-80
2021/12/08 09:39:11;;;;;;;6.25;1.30;;;;;;;;;;5070699;28;20102;-79
2021/12/08 09:41:44;;;;;;;8.93;1.90;;;;;;;;;;5065911;28;20111;-79
2021/12/08 09:44:31;;;;;;;5.93;1.63;;;;;;;;;;5070412;28;20053;-79
2021/12/08 09:46:57;;;;;;;5.97;1.33;;;;;;;;;;5069574;28;20057;-80
2021/12/08 09:49:25;;;;;;;5.72;1.85;;;;;;;;;;5070453;28;20768;-79
2021/12/08 09:51:52;;;;;;;7.57;1.73;;;;;;;;;;5089414;28;20065;-79
2021/12/08 09:54:18;;;;;;;7.10;1.40;;;;;;;;;;5068278;28;20914;-78
2021/12/08 09:56:47;;;;;;;6.72;1.63;;;;;;;;;;5074237;28;20065;-78
2021/12/08 09:59:13;;;;;;;9.52;1.75;;;;;;;;;;5070615;28;20045;-78
2021/12/08 10:01:41;;;;;;;6.15;1.48;;;;;;;;;;5069506;28;20053;-79
2021/12/08 10:04:09;;;;;;;5.80;1.40;;;;;;;;;;5071155;28;20057;-79
2021/12/08 10:06:36;;;;;;;8.50;1.98;;;;;;;;;;5069867;28;20477;-79
2021/12/08 10:09:03;;;;;;;7.20;1.73;;;;;;;;;;5076685;28;20053;-80
2021/12/08 10:11:30;;;;;;;9.57;2.35;;;;;;;;;;5070976;28;20049;-78
2021/12/08 10:13:56;;;;;;;7.85;1.60;;;;;;;;;;5069412;28;20107;-79
2021/12/08 10:16:23;;;;;;;7.78;1.45;;;;;;;;;;5064082;28;20061;-78
2021/12/08 10:18:51;;;;;;;9.75;1.40;;;;;;;;;;5071693;28;20029;-79
2021/12/08 10:21:19;;;;;;;6.20;1.30;;;;;;;;;;5074049;28;20052;-79
2021/12/08 10:23:48;;;;;;;8.15;1.52;;;;;;;;;;5073572;28;20056;-79
2021/12/08 10:26:19;;;;;;;11.15;1.55;;;;;;;;;;5077754;28;20988;-79
2021/12/08 10:28:47;;;;;;;6.50;1.30;;;;;;;;;;5074446;28;20069;-79
2021/12/08 10:31:26;;;;;;;6.13;1.52;;;;;;;;;;5075086;28;20084;-79
2021/12/08 10:39:01;;;;;;;5.72;1.40;;;;;;;;;;5075597;28;20515;-80
2021/12/08 10:41:41;;;;;;;6.45;2.20;;;;;;;;;;5074217;28;20045;-79
2021/12/08 10:44:32;;;;;;;8.27;2.53;;;;;;;;;;5072519;28;20052;-80
2021/12/08 10:46:58;;;;;;;;;;;;;;;;;;5072392;28;20310;-80
2021/12/08 10:54:24;;;;;;;10.90;3.03;;;;;;;;;;5072687;28;42563;-80
2021/12/08 10:54:58;;;;;;;10.60;1.80;;;;;;;;;;5071126;28;20112;-81
2021/12/08 10:57:27;;;;;;;9.65;2.20;;;;;;;;;;5063989;28;20061;-80
2021/12/08 11:00:14;;;;;;;6.53;1.52;;;;;;;;;;5071327;28;20064;-80
2021/12/08 11:02:42;;;;;;;6.13;1.60;;;;;;;;;;5057099;28;20053;-80
2021/12/08 11:05:24;;;;;;;7.00;1.80;;;;;;;;;;5069286;28;20052;-80
2021/12/08 11:07:58;;;;;;;10.65;1.90;;;;;;;;;;5070790;28;20077;-80
2021/12/08 11:10:25;;;;;;;6.05;1.92;;;;;;;;;;5070904;28;20061;-79
2021/12/08 11:12:53;;;;;;;5.85;1.90;;;;;;;;;;5072149;28;20048;-79
2021/12/08 11:15:22;;;;;;;8.35;2.10;;;;;;;;;;5075577;28;20049;-79
2021/12/08 11:18:05;;;;;;;9.68;2.13;;;;;;;;;;5071591;28;20053;-79
2021/12/08 11:20:33;;;;;;;8.07;1.90;;;;;;;;;;5067895;28;20053;-77
2021/12/08 11:23:01;;;;;;;5.93;1.70;;;;;;;;;;5071614;28;20037;-78
2021/12/08 11:25:38;;;;;;;6.75;2.28;;;;;;;;;;5069337;28;20083;-78
2021/12/08 11:28:23;;;;;;;8.98;2.50;;;;;;;;;;5072702;28;20053;-79
2021/12/08 11:30:51;;;;;;;8.70;1.60;;;;;;;;;;5070636;28;20127;-79
2021/12/08 11:33:21;;;;;;;7.85;1.42;;;;;;;;;;5070612;28;20114;-79
2021/12/08 11:35:48;;;;;;;5.07;1.53;;;;;;;;;;5072578;28;20049;-79
2021/12/08 11:38:23;;;;;;;4.40;1.73;;;;;;;;;;5086093;28;20147;-78
2021/12/08 11:40:49;;;;;;;6.10;1.83;;;;;;;;;;5068359;28;20049;-79
2021/12/08 11:43:16;;;;;;;5.95;1.73;;;;;;;;;;5070276;28;20092;-79
2021/12/08 11:45:43;;;;;;;5.78;1.48;;;;;;;;;;5072913;28;20090;-79
2021/12/08 11:48:20;;;;;;;4.95;1.33;;;;;;;;;;5067701;28;20045;-79
2021/12/08 11:50:47;;;;;;;7.57;1.70;;;;;;;;;;5067645;28;20048;-79
2021/12/08 11:53:19;;;;;;;7.28;1.60;;;;;;;;;;5072787;28;20566;-79
2021/12/08 11:55:46;;;;;;;6.10;1.40;;;;;;;;;;5064228;28;20092;-78
2021/12/08 11:58:12;;;;;;;7.18;1.60;;;;;;;;;;5071868;28;20053;-79
2021/12/08 12:00:41;;;;;;;3.83;1.25;;;;;;;;;;5067330;28;20594;-79
2021/12/08 12:03:10;;;;;;;5.72;1.60;;;;;;;;;;5066590;28;20055;-79
2021/12/08 12:05:39;;;;;;;7.13;1.70;;;;;;;;;;5065756;28;20119;-79
2021/12/08 12:08:07;;;;;;;8.27;1.30;;;;;;;;;;5067737;28;20053;-79
2021/12/08 12:10:35;;;;;;;4.40;1.33;;;;;;;;;;5070439;28;20052;-78
2021/12/08 12:13:08;;;;;;;6.88;1.50;;;;;;;;;;5061181;28;20493;-79
2021/12/08 12:15:36;;;;;;;6.78;1.40;;;;;;;;;;5066457;28;20534;-79
2021/12/08 12:18:03;;;;;;;4.28;1.50;;;;;;;;;;5069901;28;20475;-79
2021/12/08 12:20:43;;;;;;;3.72;1.35;;;;;;;;;;5070883;28;20057;-78
2021/12/08 12:23:12;;;;;;;5.90;1.40;;;;;;;;;;5073687;28;20053;-79
2021/12/08 12:25:46;;;;;;;6.32;1.50;;;;;;;;;;5076187;28;20049;-78
2021/12/08 12:28:31;;;;;;;6.88;1.52;;;;;;;;;;5069426;28;20049;-79
2021/12/08 12:30:57;;;;;;;6.82;1.80;;;;;;;;;;5068744;28;20053;-80
2021/12/08 12:33:24;;;;;;;8.57;2.28;;;;;;;;;;5069500;28;20048;-78
2021/12/08 12:35:59;;;;;;;5.57;2.13;;;;;;;;;;5072365;28;20198;-79
2021/12/08 12:38:33;;;;;;;5.85;1.90;;;;;;;;;;5069891;28;20045;-78
2021/12/08 12:41:00;;;;;;;7.03;1.67;;;;;;;;;;5069208;28;20057;-79
2021/12/08 12:43:28;;;;;;;5.95;2.25;;;;;;;;;;5067083;28;20049;-79
2021/12/08 12:46:02;;;;;;;6.47;1.60;;;;;;;;;;5068945;28;20068;-79
2021/12/08 12:48:30;;;;;;;7.28;1.90;;;;;;;;;;5067406;28;20643;-79
2021/12/08 12:51:01;;;;;;;7.10;1.80;;;;;;;;;;5070089;28;20041;-79
2021/12/08 12:53:32;;;;;;;7.80;1.60;;;;;;;;;;5070635;28;20053;-79
2021/12/08 12:55:59;;;;;;;5.15;1.77;;;;;;;;;;5068801;28;20057;-78
2021/12/08 12:58:37;;;;;;;6.57;1.95;;;;;;;;;;5074423;28;20890;-79
2021/12/08 13:01:09;;;;;;;8.07;1.70;;;;;;;;;;5069772;28;20061;-78
2021/12/08 13:03:44;;;;;;;7.80;2.00;;;;;;;;;;5070038;28;20519;-79
2021/12/08 13:06:12;;;;;;;6.20;1.58;;;;;;;;;;5070765;28;20063;-79
2021/12/08 13:08:40;;;;;;;4.40;1.60;;;;;;;;;;5067411;28;20053;-79
2021/12/08 13:11:25;;;;;;;8.40;1.83;;;;;;;;;;5067665;28;20105;-78
2021/12/08 13:13:54;;;;;;;4.70;1.75;;;;;;;;;;5079075;28;20107;-78
2021/12/08 13:16:24;;;;;;;10.93;1.98;;;;;;;;;;5072018;28;20037;-78
2021/12/08 13:18:54;;;;;;;6.72;1.73;;;;;;;;;;5067884;28;20053;-79
2021/12/08 13:21:39;;;;;;;10.47;2.40;;;;;;;;;;5068391;28;20566;-78
2021/12/08 13:24:26;;;;;;;4.72;1.95;;;;;;;;;;5070084;28;20075;-78
2021/12/08 13:27:10;;;;;;;5.78;2.17;;;;;;;;;;5069510;28;20670;-79
2021/12/08 13:29:39;;;;;;;7.78;2.53;;;;;;;;;;5068890;28;20057;-79
2021/12/08 13:32:11;;;;;;;6.20;2.75;;;;;;;;;;5070340;28;20057;-79
2021/12/08 13:34:45;;;;;;;8.40;2.72;;;;;;;;;;5069988;28;20076;-79
2021/12/08 13:37:12;;;;;;;8.48;2.90;;;;;;;;;;5069268;28;20049;-78
2021/12/08 13:39:41;;;;;;;8.60;2.60;;;;;;;;;;5068761;28;20057;-78
2021/12/08 13:42:30;;;;;;;12.25;2.60;;;;;;;;;;5063970;28;20056;-79
2021/12/08 13:45:01;;;;;;;9.10;2.70;;;;;;;;;;5066503;28;20052;-79
2021/12/08 13:47:38;;;;;;;7.55;2.33;;;;;;;;;;5068950;28;20111;-78
2021/12/08 13:50:06;;;;;;;4.95;2.00;;;;;;;;;;5072240;28;20075;-78
2021/12/08 13:52:35;;;;;;;9.73;2.72;;;;;;;;;;5066411;28;20061;-79
2021/12/08 13:55:07;;;;;;;13.32;3.25;;;;;;;;;;5057327;28;20056;-79
2021/12/08 13:57:36;;;;;;;8.73;2.55;;;;;;;;;;5069493;28;20483;-78
2021/12/08 14:00:08;;;;;;;8.52;2.80;;;;;;;;;;5067293;28;20052;-78
2021/12/08 14:02:38;;;;;;;8.15;2.80;;;;;;;;;;5068397;28;20123;-79
2021/12/08 14:05:07;;;;;;;6.65;2.55;;;;;;;;;;5070145;28;20053;-79
2021/12/08 14:07:36;;;;;;;7.27;2.47;;;;;;;;;;5069191;28;20097;-78
2021/12/08 14:10:14;;;;;;;10.48;2.47;;;;;;;;;;5068363;28;20613;-79
2021/12/08 14:12:43;;;;;;;7.78;2.38;;;;;;;;;;5062715;28;20049;-78
2021/12/08 14:15:13;;;;;;;6.13;2.28;;;;;;;;;;5065170;28;20101;-78
2021/12/08 14:17:40;;;;;;;7.72;2.55;;;;;;;;;;5066188;28;20080;-78
2021/12/08 14:20:23;;;;;;;7.15;2.70;;;;;;;;;;5070343;28;20052;-78
2021/12/08 14:22:49;;;;;;;5.57;2.13;;;;;;;;;;5058090;28;20091;-77
2021/12/08 14:25:16;;;;;;;8.10;2.58;;;;;;;;;;5064905;28;20133;-78
2021/12/08 14:27:42;;;;;;;6.32;2.10;;;;;;;;;;5066376;28;20088;-78
2021/12/08 14:30:08;;;;;;;6.15;2.05;;;;;;;;;;5066356;28;20158;-78
2021/12/08 14:32:35;;;;;;;7.07;1.92;;;;;;;;;;5059295;28;20050;-78
2021/12/08 14:35:08;;;;;;;7.20;2.40;;;;;;;;;;5067396;28;20553;-78
2021/12/08 14:37:35;;;;;;;5.40;1.90;;;;;;;;;;5066875;28;20830;-78
2021/12/08 14:40:03;;;;;;;5.38;2.00;;;;;;;;;;5068935;28;20057;-81
2021/12/08 14:42:32;;;;;;;7.88;2.10;;;;;;;;;;5069112;28;20080;-78
2021/12/08 14:45:06;;;;;;;10.93;2.00;;;;;;;;;;5069239;28;20106;-81
2021/12/08 14:47:36;;;;;;;6.03;2.00;;;;;;;;;;5065223;28;20045;-81
2021/12/08 14:50:10;;;;;;;7.45;2.00;;;;;;;;;;5066332;28;20057;-81
2021/12/08 14:52:38;;;;;;;4.65;1.77;;;;;;;;;;5067650;28;20084;-81
2021/12/08 14:55:05;;;;;;;6.78;1.80;;;;;;;;;;5070433;28;20102;-81
2021/12/08 14:57:39;;;;;;;10.00;2.25;;;;;;;;;;5072365;28;20107;-81
2021/12/08 15:00:08;;;;;;;5.45;1.80;;;;;;;;;;5063773;28;20488;-81
2021/12/08 15:02:34;;;;;;;5.57;1.80;;;;;;;;;;5069358;28;20211;-81
2021/12/08 15:05:08;;;;;;;10.60;2.60;;;;;;;;;;5073017;28;20570;-81
2021/12/08 15:07:34;;;;;;;5.97;1.55;;;;;;;;;;5074412;28;20053;-81
2021/12/08 15:10:04;;;;;;;5.93;1.88;;;;;;;;;;5072917;28;20049;-81
2021/12/08 15:12:30;;;;;;;7.63;1.70;;;;;;;;;;5054704;28;20054;-81
2021/12/08 15:14:57;;;;;;;6.63;2.10;;;;;;;;;;5071052;28;20048;-81
2021/12/08 15:17:28;;;;;;;5.95;1.85;;;;;;;;;;5065947;28;20203;-80
2021/12/08 15:19:54;;;;;;;6.43;1.77;;;;;;;;;;5072173;28;20049;-81
2021/12/08 15:22:26;;;;;;;5.72;2.10;;;;;;;;;;5073987;28;20119;-81
2021/12/08 15:25:06;;;;;;;5.00;1.90;;;;;;;;;;5073172;28;20057;-80
2021/12/08 15:27:36;;;;;;;7.10;2.00;;;;;;;;;;5087904;28;20103;-82
2021/12/08 15:30:03;;;;;;;6.20;1.90;;;;;;;;;;5072635;28;20284;-81
2021/12/08 15:32:29;;;;;;;5.57;1.90;;;;;;;;;;5070573;28;20749;-81
2021/12/08 15:35:07;;;;;;;6.55;1.92;;;;;;;;;;5072445;28;20463;-81
2021/12/08 15:37:35;;;;;;;4.85;1.75;;;;;;;;;;5072758;28;20111;-81
2021/12/08 15:40:03;;;;;;;6.80;1.55;;;;;;;;;;5074054;28;20049;-81
2021/12/08 15:42:31;;;;;;;5.68;1.70;;;;;;;;;;5068996;28;20086;-81